sensor_id;sensor_type;location;lat;lon;timestamp;temperature;humidity
15707;DHT22;7953;54.302;10.128;2023-09-19T00:01:35;16.80;99.90
15707;DHT22;7953;54.302;10.128;2023-09-19T00:04:03;16.80;99.90
15707;DHT22;7953;54.302;10.128;2023-09-19T00:06:36;16.80;99.90
15707;DHT22;7953;54.302;10.128;2023-09-19T00:09:03;16.80;99.90
15707;DHT22;7953;54.302;10.128;2023-09-19T00:11:30;16.80;99.90
15707;DHT22;7953;54.302;10.128;2023-09-19T00:13:57;16.90;99.90
15707;DHT22;7953;54.302;10.128;2023-09-19T00:16:25;16.90;99.90
15707;DHT22;7953;54.302;10.128;2023-09-19T00:18:52;16.90;99.90
15707;DHT22;7953;54.302;10.128;2023-09-19T00:21:20;16.90;99.90
15707;DHT22;7953;54.302;10.128;2023-09-19T00:23:47;16.90;99.90
15707;DHT22;7953;54.302;10.128;2023-09-19T00:26:14;16.90;99.90
15707;DHT22;7953;54.302;10.128;2023-09-19T00:28:43;16.90;99.90
15707;DHT22;7953;54.302;10.128;2023-09-19T00:31:10;16.90;99.90
15707;DHT22;7953;54.302;10.128;2023-09-19T00:33:37;16.90;99.90
15707;DHT22;7953;54.302;10.128;2023-09-19T00:36:04;16.90;99.90
15707;DHT22;7953;54.302;10.128;2023-09-19T00:38:32;16.90;99.90
15707;DHT22;7953;54.302;10.128;2023-09-19T00:40:59;16.90;99.90
15707;DHT22;7953;54.302;10.128;2023-09-19T00:43:27;16.90;99.90
15707;DHT22;7953;54.302;10.128;2023-09-19T00:45:56;16.90;99.90
15707;DHT22;7953;54.302;10.128;2023-09-19T00:48:24;16.90;99.90
15707;DHT22;7953;54.302;10.128;2023-09-19T00:50:52;17.00;99.90
15707;DHT22;7953;54.302;10.128;2023-09-19T00:53:21;16.90;99.90
15707;DHT22;7953;54.302;10.128;2023-09-19T00:55:51;16.90;99.90
15707;DHT22;7953;54.302;10.128;2023-09-19T00:58:19;16.90;99.90
15707;DHT22;7953;54.302;10.128;2023-09-19T01:00:47;16.90;99.90
15707;DHT22;7953;54.302;10.128;2023-09-19T01:03:15;16.90;99.90
15707;DHT22;7953;54.302;10.128;2023-09-19T01:05:42;16.90;99.90
15707;DHT22;7953;54.302;10.128;2023-09-19T01:08:09;16.90;99.90
15707;DHT22;7953;54.302;10.128;2023-09-19T01:10:38;16.80;99.90
15707;DHT22;7953;54.302;10.128;2023-09-19T01:13:18;16.80;99.90
15707;DHT22;7953;54.302;10.128;2023-09-19T01:15:54;16.80;99.90
15707;DHT22;7953;54.302;10.128;2023-09-19T01:18:30;16.80;99.90
15707;DHT22;7953;54.302;10.128;2023-09-19T01:21:05;16.80;99.90
15707;DHT22;7953;54.302;10.128;2023-09-19T01:23:51;16.80;99.90
15707;DHT22;7953;54.302;10.128;2023-09-19T01:26:44;16.90;99.90
15707;DHT22;7953;54.302;10.128;2023-09-19T01:29:33;16.90;99.90
15707;DHT22;7953;54.302;10.128;2023-09-19T01:32:06;16.90;99.90
15707;DHT22;7953;54.302;10.128;2023-09-19T01:34:45;16.90;99.90
15707;DHT22;7953;54.302;10.128;2023-09-19T01:37:14;16.90;99.90
15707;DHT22;7953;54.302;10.128;2023-09-19T01:39:46;16.90;99.90
15707;DHT22;7953;54.302;10.128;2023-09-19T01:42:35;16.80;99.90
15707;DHT22;7953;54.302;10.128;2023-09-19T01:45:11;16.80;99.90
15707;DHT22;7953;54.302;10.128;2023-09-19T01:47:46;16.80;99.90
15707;DHT22;7953;54.302;10.128;2023-09-19T01:50:21;16.80;99.90
15707;DHT22;7953;54.302;10.128;2023-09-19T01:52:56;16.80;99.90
15707;DHT22;7953;54.302;10.128;2023-09-19T01:55:26;16.80;99.90
15707;DHT22;7953;54.302;10.128;2023-09-19T01:58:00;16.80;99.90
15707;DHT22;7953;54.302;10.128;2023-09-19T02:00:33;16.80;99.90
15707;DHT22;7953;54.302;10.128;2023-09-19T02:03:03;16.70;99.90
15707;DHT22;7953;54.302;10.128;2023-09-19T02:05:30;16.70;99.90
15707;DHT22;7953;54.302;10.128;2023-09-19T02:07:58;16.70;99.90
15707;DHT22;7953;54.302;10.128;2023-09-19T02:10:26;16.70;99.90
15707;DHT22;7953;54.302;10.128;2023-09-19T02:12:53;16.70;99.90
15707;DHT22;7953;54.302;10.128;2023-09-19T02:15:20;16.60;99.90
15707;DHT22;7953;54.302;10.128;2023-09-19T02:17:47;16.60;99.90
15707;DHT22;7953;54.302;10.128;2023-09-19T02:20:16;16.60;99.90
15707;DHT22;7953;54.302;10.128;2023-09-19T02:22:45;16.60;99.90
15707;DHT22;7953;54.302;10.128;2023-09-19T02:25:12;16.60;99.90
15707;DHT22;7953;54.302;10.128;2023-09-19T02:27:39;16.60;99.90
15707;DHT22;7953;54.302;10.128;2023-09-19T02:30:08;16.60;99.90
15707;DHT22;7953;54.302;10.128;2023-09-19T02:32:34;16.50;99.90
15707;DHT22;7953;54.302;10.128;2023-09-19T02:35:06;16.50;99.90
15707;DHT22;7953;54.302;10.128;2023-09-19T02:37:34;16.50;99.90
15707;DHT22;7953;54.302;10.128;2023-09-19T02:40:01;16.50;99.90
15707;DHT22;7953;54.302;10.128;2023-09-19T02:42:44;16.40;99.90
15707;DHT22;7953;54.302;10.128;2023-09-19T02:45:15;16.40;99.90
15707;DHT22;7953;54.302;10.128;2023-09-19T02:47:44;16.30;99.90
15707;DHT22;7953;54.302;10.128;2023-09-19T02:50:12;16.30;99.90
15707;DHT22;7953;54.302;10.128;2023-09-19T02:52:43;16.20;99.90
15707;DHT22;7953;54.302;10.128;2023-09-19T02:55:10;16.20;99.90
15707;DHT22;7953;54.302;10.128;2023-09-19T02:57:37;16.10;99.90
15707;DHT22;7953;54.302;10.128;2023-09-19T03:00:07;16.10;99.90
15707;DHT22;7953;54.302;10.128;2023-09-19T03:02:36;16.00;99.90
15707;DHT22;7953;54.302;10.128;2023-09-19T03:05:04;16.00;99.90
15707;DHT22;7953;54.302;10.128;2023-09-19T03:07:31;16.10;99.90
15707;DHT22;7953;54.302;10.128;2023-09-19T03:09:59;16.00;99.90
15707;DHT22;7953;54.302;10.128;2023-09-19T03:12:27;16.10;99.90
15707;DHT22;7953;54.302;10.128;2023-09-19T03:14:53;16.00;99.90
15707;DHT22;7953;54.302;10.128;2023-09-19T03:17:21;16.00;99.90
15707;DHT22;7953;54.302;10.128;2023-09-19T03:19:47;16.00;99.90
15707;DHT22;7953;54.302;10.128;2023-09-19T03:22:15;16.00;99.90
15707;DHT22;7953;54.302;10.128;2023-09-19T03:24:43;16.10;99.90
15707;DHT22;7953;54.302;10.128;2023-09-19T03:27:12;16.10;99.90
15707;DHT22;7953;54.302;10.128;2023-09-19T03:29:39;16.00;99.90
15707;DHT22;7953;54.302;10.128;2023-09-19T03:32:06;16.00;99.90
15707;DHT22;7953;54.302;10.128;2023-09-19T03:34:36;16.10;99.90
15707;DHT22;7953;54.302;10.128;2023-09-19T03:37:04;16.00;99.90
15707;DHT22;7953;54.302;10.128;2023-09-19T03:39:32;16.10;99.90
15707;DHT22;7953;54.302;10.128;2023-09-19T03:41:59;16.00;99.90
15707;DHT22;7953;54.302;10.128;2023-09-19T03:44:27;16.00;99.90
15707;DHT22;7953;54.302;10.128;2023-09-19T03:46:54;16.00;99.90
15707;DHT22;7953;54.302;10.128;2023-09-19T03:49:22;15.90;99.90
15707;DHT22;7953;54.302;10.128;2023-09-19T03:51:49;15.90;99.90
15707;DHT22;7953;54.302;10.128;2023-09-19T03:54:15;15.90;99.90
15707;DHT22;7953;54.302;10.128;2023-09-19T03:56:42;15.90;99.90
15707;DHT22;7953;54.302;10.128;2023-09-19T03:59:09;15.80;99.90
15707;DHT22;7953;54.302;10.128;2023-09-19T04:01:37;15.70;99.90
15707;DHT22;7953;54.302;10.128;2023-09-19T04:04:05;15.80;99.90
15707;DHT22;7953;54.302;10.128;2023-09-19T04:06:34;15.70;99.90
15707;DHT22;7953;54.302;10.128;2023-09-19T04:09:01;15.70;99.90
15707;DHT22;7953;54.302;10.128;2023-09-19T04:11:29;15.70;99.90
15707;DHT22;7953;54.302;10.128;2023-09-19T04:13:56;15.60;99.90
15707;DHT22;7953;54.302;10.128;2023-09-19T04:16:23;15.60;99.90
15707;DHT22;7953;54.302;10.128;2023-09-19T04:18:52;15.50;99.90
15707;DHT22;7953;54.302;10.128;2023-09-19T04:21:18;15.50;99.90
15707;DHT22;7953;54.302;10.128;2023-09-19T04:23:45;15.50;99.90
15707;DHT22;7953;54.302;10.128;2023-09-19T04:26:12;15.50;99.90
15707;DHT22;7953;54.302;10.128;2023-09-19T04:28:39;15.50;99.90
15707;DHT22;7953;54.302;10.128;2023-09-19T04:31:06;15.40;99.90
15707;DHT22;7953;54.302;10.128;2023-09-19T04:33:35;15.30;99.90
15707;DHT22;7953;54.302;10.128;2023-09-19T04:36:04;15.40;99.90
15707;DHT22;7953;54.302;10.128;2023-09-19T04:38:32;15.40;99.90
15707;DHT22;7953;54.302;10.128;2023-09-19T04:41:00;15.40;99.90
15707;DHT22;7953;54.302;10.128;2023-09-19T04:43:27;15.40;99.90
15707;DHT22;7953;54.302;10.128;2023-09-19T04:45:54;15.30;99.90
15707;DHT22;7953;54.302;10.128;2023-09-19T04:48:22;15.30;99.90
15707;DHT22;7953;54.302;10.128;2023-09-19T04:50:50;15.20;99.90
15707;DHT22;7953;54.302;10.128;2023-09-19T04:53:18;15.20;99.90
15707;DHT22;7953;54.302;10.128;2023-09-19T04:55:50;15.10;99.90
15707;DHT22;7953;54.302;10.128;2023-09-19T04:58:18;15.10;99.90
15707;DHT22;7953;54.302;10.128;2023-09-19T05:00:45;15.00;99.90
15707;DHT22;7953;54.302;10.128;2023-09-19T05:03:11;15.00;99.90
15707;DHT22;7953;54.302;10.128;2023-09-19T05:05:38;15.00;99.90
15707;DHT22;7953;54.302;10.128;2023-09-19T05:08:06;15.00;99.90
15707;DHT22;7953;54.302;10.128;2023-09-19T05:10:36;15.00;99.90
15707;DHT22;7953;54.302;10.128;2023-09-19T05:13:03;15.00;99.90
15707;DHT22;7953;54.302;10.128;2023-09-19T05:15:30;14.90;99.90
15707;DHT22;7953;54.302;10.128;2023-09-19T05:17:57;14.90;99.90
15707;DHT22;7953;54.302;10.128;2023-09-19T05:20:25;14.90;99.90
15707;DHT22;7953;54.302;10.128;2023-09-19T05:22:58;14.80;99.90
15707;DHT22;7953;54.302;10.128;2023-09-19T05:25:27;14.80;99.90
15707;DHT22;7953;54.302;10.128;2023-09-19T05:27:57;14.90;99.90
15707;DHT22;7953;54.302;10.128;2023-09-19T05:30:24;14.80;99.90
15707;DHT22;7953;54.302;10.128;2023-09-19T05:32:53;14.80;99.90
15707;DHT22;7953;54.302;10.128;2023-09-19T05:35:21;14.80;99.90
15707;DHT22;7953;54.302;10.128;2023-09-19T05:37:49;14.80;99.90
15707;DHT22;7953;54.302;10.128;2023-09-19T05:40:17;14.80;99.90
15707;DHT22;7953;54.302;10.128;2023-09-19T05:42:44;14.80;99.90
15707;DHT22;7953;54.302;10.128;2023-09-19T05:45:13;14.80;99.90
15707;DHT22;7953;54.302;10.128;2023-09-19T05:47:44;14.80;99.90
15707;DHT22;7953;54.302;10.128;2023-09-19T05:50:12;14.80;99.90
15707;DHT22;7953;54.302;10.128;2023-09-19T05:52:40;14.80;99.90
15707;DHT22;7953;54.302;10.128;2023-09-19T05:55:10;14.80;99.90
15707;DHT22;7953;54.302;10.128;2023-09-19T05:57:37;14.70;99.90
15707;DHT22;7953;54.302;10.128;2023-09-19T06:00:05;14.70;99.90
15707;DHT22;7953;54.302;10.128;2023-09-19T06:02:35;14.70;99.90
15707;DHT22;7953;54.302;10.128;2023-09-19T06:05:04;14.70;99.90
15707;DHT22;7953;54.302;10.128;2023-09-19T06:07:31;14.70;99.90
15707;DHT22;7953;54.302;10.128;2023-09-19T06:10:02;14.70;99.90
15707;DHT22;7953;54.302;10.128;2023-09-19T06:12:31;14.80;99.90
15707;DHT22;7953;54.302;10.128;2023-09-19T06:14:58;14.80;99.90
15707;DHT22;7953;54.302;10.128;2023-09-19T06:17:25;14.80;99.90
15707;DHT22;7953;54.302;10.128;2023-09-19T06:19:54;14.80;99.90
15707;DHT22;7953;54.302;10.128;2023-09-19T06:22:21;14.80;99.90
15707;DHT22;7953;54.302;10.128;2023-09-19T06:24:49;14.80;99.90
15707;DHT22;7953;54.302;10.128;2023-09-19T06:27:16;14.80;99.90
15707;DHT22;7953;54.302;10.128;2023-09-19T06:29:43;14.80;99.90
15707;DHT22;7953;54.302;10.128;2023-09-19T06:32:10;14.90;99.90
15707;DHT22;7953;54.302;10.128;2023-09-19T06:34:37;14.90;99.90
15707;DHT22;7953;54.302;10.128;2023-09-19T06:37:05;14.90;99.90
15707;DHT22;7953;54.302;10.128;2023-09-19T06:39:32;14.90;99.90
15707;DHT22;7953;54.302;10.128;2023-09-19T06:41:59;15.00;99.90
15707;DHT22;7953;54.302;10.128;2023-09-19T06:44:27;15.00;99.90
15707;DHT22;7953;54.302;10.128;2023-09-19T06:46:55;15.00;99.90
15707;DHT22;7953;54.302;10.128;2023-09-19T06:49:22;15.10;99.90
15707;DHT22;7953;54.302;10.128;2023-09-19T06:51:49;15.10;99.90
15707;DHT22;7953;54.302;10.128;2023-09-19T06:54:17;15.10;99.90
15707;DHT22;7953;54.302;10.128;2023-09-19T06:56:44;15.10;99.90
15707;DHT22;7953;54.302;10.128;2023-09-19T06:59:11;15.00;99.90
15707;DHT22;7953;54.302;10.128;2023-09-19T07:01:40;15.10;99.90
15707;DHT22;7953;54.302;10.128;2023-09-19T07:04:10;15.10;99.90
15707;DHT22;7953;54.302;10.128;2023-09-19T07:06:38;15.10;99.90
15707;DHT22;7953;54.302;10.128;2023-09-19T07:09:05;15.10;99.90
15707;DHT22;7953;54.302;10.128;2023-09-19T07:11:35;15.10;99.90
15707;DHT22;7953;54.302;10.128;2023-09-19T07:14:02;15.10;99.90
15707;DHT22;7953;54.302;10.128;2023-09-19T07:16:31;15.20;99.90
15707;DHT22;7953;54.302;10.128;2023-09-19T07:18:58;15.20;99.90
15707;DHT22;7953;54.302;10.128;2023-09-19T07:21:24;15.20;99.90
15707;DHT22;7953;54.302;10.128;2023-09-19T07:23:51;15.20;99.90
15707;DHT22;7953;54.302;10.128;2023-09-19T07:26:18;15.30;99.90
15707;DHT22;7953;54.302;10.128;2023-09-19T07:28:46;15.30;99.90
15707;DHT22;7953;54.302;10.128;2023-09-19T07:31:13;15.40;99.90
15707;DHT22;7953;54.302;10.128;2023-09-19T07:33:40;15.40;99.90
15707;DHT22;7953;54.302;10.128;2023-09-19T07:36:10;15.40;99.90
15707;DHT22;7953;54.302;10.128;2023-09-19T07:38:39;15.40;99.90
15707;DHT22;7953;54.302;10.128;2023-09-19T07:41:06;15.40;99.90
15707;DHT22;7953;54.302;10.128;2023-09-19T07:43:34;15.40;99.90
15707;DHT22;7953;54.302;10.128;2023-09-19T07:46:04;15.30;99.90
15707;DHT22;7953;54.302;10.128;2023-09-19T07:48:32;15.40;99.90
15707;DHT22;7953;54.302;10.128;2023-09-19T07:51:02;15.40;99.90
15707;DHT22;7953;54.302;10.128;2023-09-19T07:53:30;15.40;99.90
15707;DHT22;7953;54.302;10.128;2023-09-19T07:56:04;15.50;99.90
15707;DHT22;7953;54.302;10.128;2023-09-19T07:58:31;15.40;99.90
15707;DHT22;7953;54.302;10.128;2023-09-19T08:01:04;15.40;99.90
15707;DHT22;7953;54.302;10.128;2023-09-19T08:03:32;15.40;99.90
15707;DHT22;7953;54.302;10.128;2023-09-19T08:05:59;15.40;99.90
15707;DHT22;7953;54.302;10.128;2023-09-19T08:08:26;15.50;99.90
15707;DHT22;7953;54.302;10.128;2023-09-19T08:10:53;15.50;99.90
15707;DHT22;7953;54.302;10.128;2023-09-19T08:13:22;15.50;99.90
15707;DHT22;7953;54.302;10.128;2023-09-19T08:15:49;15.60;99.90
15707;DHT22;7953;54.302;10.128;2023-09-19T08:18:20;15.60;99.90
15707;DHT22;7953;54.302;10.128;2023-09-19T08:20:52;15.70;99.90
15707;DHT22;7953;54.302;10.128;2023-09-19T08:23:19;15.80;99.90
15707;DHT22;7953;54.302;10.128;2023-09-19T08:25:46;15.80;99.90
15707;DHT22;7953;54.302;10.128;2023-09-19T08:28:13;15.90;99.90
15707;DHT22;7953;54.302;10.128;2023-09-19T08:30:45;15.90;99.90
15707;DHT22;7953;54.302;10.128;2023-09-19T08:33:12;16.00;99.90
15707;DHT22;7953;54.302;10.128;2023-09-19T08:35:42;16.00;99.90
15707;DHT22;7953;54.302;10.128;2023-09-19T08:38:10;16.00;99.90
15707;DHT22;7953;54.302;10.128;2023-09-19T08:40:39;15.90;99.90
15707;DHT22;7953;54.302;10.128;2023-09-19T08:43:07;15.90;99.90
15707;DHT22;7953;54.302;10.128;2023-09-19T08:45:35;15.90;99.90
15707;DHT22;7953;54.302;10.128;2023-09-19T08:48:16;16.00;99.90
15707;DHT22;7953;54.302;10.128;2023-09-19T08:50:49;16.20;99.90
15707;DHT22;7953;54.302;10.128;2023-09-19T08:53:23;16.30;99.90
15707;DHT22;7953;54.302;10.128;2023-09-19T08:55:51;16.30;99.90
15707;DHT22;7953;54.302;10.128;2023-09-19T08:58:22;16.30;99.90
15707;DHT22;7953;54.302;10.128;2023-09-19T09:00:54;16.40;99.90
15707;DHT22;7953;54.302;10.128;2023-09-19T09:03:22;16.50;99.90
15707;DHT22;7953;54.302;10.128;2023-09-19T09:05:51;16.60;99.90
15707;DHT22;7953;54.302;10.128;2023-09-19T09:08:19;16.60;99.90
15707;DHT22;7953;54.302;10.128;2023-09-19T09:10:47;16.50;99.90
15707;DHT22;7953;54.302;10.128;2023-09-19T09:13:14;16.30;99.90
15707;DHT22;7953;54.302;10.128;2023-09-19T09:15:41;16.30;99.90
15707;DHT22;7953;54.302;10.128;2023-09-19T09:18:10;16.20;99.90
15707;DHT22;7953;54.302;10.128;2023-09-19T09:20:37;16.20;99.90
15707;DHT22;7953;54.302;10.128;2023-09-19T09:23:05;16.20;99.90
15707;DHT22;7953;54.302;10.128;2023-09-19T09:25:48;16.20;99.90
15707;DHT22;7953;54.302;10.128;2023-09-19T09:28:21;16.20;99.90
15707;DHT22;7953;54.302;10.128;2023-09-19T09:30:49;16.30;99.90
15707;DHT22;7953;54.302;10.128;2023-09-19T09:33:16;16.30;99.90
15707;DHT22;7953;54.302;10.128;2023-09-19T09:35:51;16.30;99.90
15707;DHT22;7953;54.302;10.128;2023-09-19T09:38:21;16.50;99.90
15707;DHT22;7953;54.302;10.128;2023-09-19T09:40:52;16.50;99.90
15707;DHT22;7953;54.302;10.128;2023-09-19T09:43:29;16.70;99.90
15707;DHT22;7953;54.302;10.128;2023-09-19T09:46:20;16.80;99.90
15707;DHT22;7953;54.302;10.128;2023-09-19T09:49:07;16.80;99.90
15707;DHT22;7953;54.302;10.128;2023-09-19T09:51:59;16.80;99.90
15707;DHT22;7953;54.302;10.128;2023-09-19T09:54:32;16.80;99.90
15707;DHT22;7953;54.302;10.128;2023-09-19T09:57:04;16.80;99.90
15707;DHT22;7953;54.302;10.128;2023-09-19T09:59:47;16.80;99.90
15707;DHT22;7953;54.302;10.128;2023-09-19T10:02:15;16.80;99.90
15707;DHT22;7953;54.302;10.128;2023-09-19T10:04:48;16.80;99.90
15707;DHT22;7953;54.302;10.128;2023-09-19T10:07:28;17.00;99.90
15707;DHT22;7953;54.302;10.128;2023-09-19T10:09:59;17.10;99.90
15707;DHT22;7953;54.302;10.128;2023-09-19T10:12:38;17.10;99.90
15707;DHT22;7953;54.302;10.128;2023-09-19T10:15:07;17.20;99.90
15707;DHT22;7953;54.302;10.128;2023-09-19T10:17:36;17.20;99.90
15707;DHT22;7953;54.302;10.128;2023-09-19T10:20:10;17.40;99.90
15707;DHT22;7953;54.302;10.128;2023-09-19T10:22:48;17.50;99.90
15707;DHT22;7953;54.302;10.128;2023-09-19T10:25:25;17.60;99.90
15707;DHT22;7953;54.302;10.128;2023-09-19T10:27:54;17.70;99.90
15707;DHT22;7953;54.302;10.128;2023-09-19T10:30:23;17.70;99.90
15707;DHT22;7953;54.302;10.128;2023-09-19T10:32:58;17.70;99.90
15707;DHT22;7953;54.302;10.128;2023-09-19T10:35:26;17.70;99.90
15707;DHT22;7953;54.302;10.128;2023-09-19T10:37:56;17.60;99.90
15707;DHT22;7953;54.302;10.128;2023-09-19T10:40:25;17.50;99.90
15707;DHT22;7953;54.302;10.128;2023-09-19T10:43:00;17.40;99.90
15707;DHT22;7953;54.302;10.128;2023-09-19T10:45:29;17.50;99.90
15707;DHT22;7953;54.302;10.128;2023-09-19T10:47:57;17.50;99.90
15707;DHT22;7953;54.302;10.128;2023-09-19T10:50:24;17.60;99.90
15707;DHT22;7953;54.302;10.128;2023-09-19T10:52:53;17.60;99.90
15707;DHT22;7953;54.302;10.128;2023-09-19T10:55:28;17.50;99.90
15707;DHT22;7953;54.302;10.128;2023-09-19T10:57:55;17.70;99.90
15707;DHT22;7953;54.302;10.128;2023-09-19T11:00:30;17.80;99.90
15707;DHT22;7953;54.302;10.128;2023-09-19T11:03:19;17.90;99.90
15707;DHT22;7953;54.302;10.128;2023-09-19T11:06:05;17.80;99.90
15707;DHT22;7953;54.302;10.128;2023-09-19T11:08:54;17.90;99.90
15707;DHT22;7953;54.302;10.128;2023-09-19T11:11:44;18.10;99.90
15707;DHT22;7953;54.302;10.128;2023-09-19T11:14:37;18.30;99.90
15707;DHT22;7953;54.302;10.128;2023-09-19T11:17:31;18.50;99.90
15707;DHT22;7953;54.302;10.128;2023-09-19T11:20:19;18.50;99.90
15707;DHT22;7953;54.302;10.128;2023-09-19T11:23:23;18.30;99.90
15707;DHT22;7953;54.302;10.128;2023-09-19T11:25:51;18.30;99.90
15707;DHT22;7953;54.302;10.128;2023-09-19T11:28:33;18.30;99.90
15707;DHT22;7953;54.302;10.128;2023-09-19T11:34:45;18.40;99.90
15707;DHT22;7953;54.302;10.128;2023-09-19T11:40:36;18.10;99.90
15707;DHT22;7953;54.302;10.128;2023-09-19T11:43:27;18.10;99.90
15707;DHT22;7953;54.302;10.128;2023-09-19T11:46:07;18.00;99.90
15707;DHT22;7953;54.302;10.128;2023-09-19T11:48:35;17.90;99.90
15707;DHT22;7953;54.302;10.128;2023-09-19T11:51:17;17.90;99.90
15707;DHT22;7953;54.302;10.128;2023-09-19T11:53:50;18.10;99.90
15707;DHT22;7953;54.302;10.128;2023-09-19T11:56:18;18.20;99.90
15707;DHT22;7953;54.302;10.128;2023-09-19T11:58:46;18.30;99.90
15707;DHT22;7953;54.302;10.128;2023-09-19T12:01:22;18.50;99.90
15707;DHT22;7953;54.302;10.128;2023-09-19T12:03:53;18.50;99.90
15707;DHT22;7953;54.302;10.128;2023-09-19T12:06:23;18.60;99.90
15707;DHT22;7953;54.302;10.128;2023-09-19T12:08:50;18.60;99.90
15707;DHT22;7953;54.302;10.128;2023-09-19T12:11:20;18.50;99.90
15707;DHT22;7953;54.302;10.128;2023-09-19T12:13:49;18.50;99.90
15707;DHT22;7953;54.302;10.128;2023-09-19T12:16:19;18.50;99.90
15707;DHT22;7953;54.302;10.128;2023-09-19T12:18:48;18.50;99.90
15707;DHT22;7953;54.302;10.128;2023-09-19T12:21:26;18.50;99.90
15707;DHT22;7953;54.302;10.128;2023-09-19T12:24:04;18.50;99.90
15707;DHT22;7953;54.302;10.128;2023-09-19T12:26:39;18.70;99.90
15707;DHT22;7953;54.302;10.128;2023-09-19T12:29:14;18.70;99.90
15707;DHT22;7953;54.302;10.128;2023-09-19T12:31:51;18.60;99.90
15707;DHT22;7953;54.302;10.128;2023-09-19T12:34:24;18.40;99.90
15707;DHT22;7953;54.302;10.128;2023-09-19T12:37:06;18.40;99.90
15707;DHT22;7953;54.302;10.128;2023-09-19T12:39:38;18.40;99.90
15707;DHT22;7953;54.302;10.128;2023-09-19T12:42:07;18.50;99.90
15707;DHT22;7953;54.302;10.128;2023-09-19T12:44:36;18.30;99.90
15707;DHT22;7953;54.302;10.128;2023-09-19T12:47:15;18.20;99.90
15707;DHT22;7953;54.302;10.128;2023-09-19T12:50:12;18.20;99.90
15707;DHT22;7953;54.302;10.128;2023-09-19T12:52:41;18.30;99.90
15707;DHT22;7953;54.302;10.128;2023-09-19T12:55:19;18.30;99.90
15707;DHT22;7953;54.302;10.128;2023-09-19T12:57:56;18.40;99.90
15707;DHT22;7953;54.302;10.128;2023-09-19T13:00:32;18.50;99.90
15707;DHT22;7953;54.302;10.128;2023-09-19T13:03:12;18.50;99.90
15707;DHT22;7953;54.302;10.128;2023-09-19T13:05:56;18.40;99.90
15707;DHT22;7953;54.302;10.128;2023-09-19T13:08:27;18.40;99.90
15707;DHT22;7953;54.302;10.128;2023-09-19T13:11:03;18.50;99.90
15707;DHT22;7953;54.302;10.128;2023-09-19T13:13:32;18.50;99.90
15707;DHT22;7953;54.302;10.128;2023-09-19T13:16:01;18.60;99.90
15707;DHT22;7953;54.302;10.128;2023-09-19T13:18:31;18.70;99.90
15707;DHT22;7953;54.302;10.128;2023-09-19T13:21:08;18.80;99.90
15707;DHT22;7953;54.302;10.128;2023-09-19T13:23:37;18.90;99.90
15707;DHT22;7953;54.302;10.128;2023-09-19T13:26:05;18.90;99.90
15707;DHT22;7953;54.302;10.128;2023-09-19T13:28:33;18.90;99.90
15707;DHT22;7953;54.302;10.128;2023-09-19T13:31:01;19.00;99.90
15707;DHT22;7953;54.302;10.128;2023-09-19T13:33:28;18.90;99.90
15707;DHT22;7953;54.302;10.128;2023-09-19T13:35:57;18.90;99.90
15707;DHT22;7953;54.302;10.128;2023-09-19T13:38:24;18.80;99.90
15707;DHT22;7953;54.302;10.128;2023-09-19T13:40:51;18.80;99.90
15707;DHT22;7953;54.302;10.128;2023-09-19T13:43:19;18.70;99.90
15707;DHT22;7953;54.302;10.128;2023-09-19T13:45:47;18.80;99.90
15707;DHT22;7953;54.302;10.128;2023-09-19T13:48:15;18.80;99.90
15707;DHT22;7953;54.302;10.128;2023-09-19T13:50:45;18.80;99.90
15707;DHT22;7953;54.302;10.128;2023-09-19T13:53:13;19.00;99.90
15707;DHT22;7953;54.302;10.128;2023-09-19T13:55:40;18.90;99.90
15707;DHT22;7953;54.302;10.128;2023-09-19T13:58:07;18.80;99.90
15707;DHT22;7953;54.302;10.128;2023-09-19T14:00:36;18.70;99.90
15707;DHT22;7953;54.302;10.128;2023-09-19T14:03:04;18.60;99.90
15707;DHT22;7953;54.302;10.128;2023-09-19T14:05:31;18.50;99.90
15707;DHT22;7953;54.302;10.128;2023-09-19T14:07:58;18.50;99.90
15707;DHT22;7953;54.302;10.128;2023-09-19T14:10:27;18.50;99.90
15707;DHT22;7953;54.302;10.128;2023-09-19T14:12:55;18.40;99.90
15707;DHT22;7953;54.302;10.128;2023-09-19T14:15:23;18.40;99.90
15707;DHT22;7953;54.302;10.128;2023-09-19T14:17:55;18.50;99.90
15707;DHT22;7953;54.302;10.128;2023-09-19T14:20:22;18.50;99.90
15707;DHT22;7953;54.302;10.128;2023-09-19T14:22:49;18.50;99.90
15707;DHT22;7953;54.302;10.128;2023-09-19T14:25:16;18.50;99.90
15707;DHT22;7953;54.302;10.128;2023-09-19T14:27:44;18.40;99.90
15707;DHT22;7953;54.302;10.128;2023-09-19T14:30:13;18.30;99.90
15707;DHT22;7953;54.302;10.128;2023-09-19T14:32:40;18.30;99.90
15707;DHT22;7953;54.302;10.128;2023-09-19T14:35:08;18.30;99.90
15707;DHT22;7953;54.302;10.128;2023-09-19T14:37:36;18.20;99.90
15707;DHT22;7953;54.302;10.128;2023-09-19T14:40:05;18.20;99.90
15707;DHT22;7953;54.302;10.128;2023-09-19T14:42:35;18.20;99.90
15707;DHT22;7953;54.302;10.128;2023-09-19T14:45:06;18.20;99.90
15707;DHT22;7953;54.302;10.128;2023-09-19T14:47:33;18.10;99.90
15707;DHT22;7953;54.302;10.128;2023-09-19T14:50:01;18.10;99.90
15707;DHT22;7953;54.302;10.128;2023-09-19T14:52:32;18.10;99.90
15707;DHT22;7953;54.302;10.128;2023-09-19T14:54:59;18.00;99.90
15707;DHT22;7953;54.302;10.128;2023-09-19T14:57:27;18.00;99.90
15707;DHT22;7953;54.302;10.128;2023-09-19T14:59:55;18.00;99.90
15707;DHT22;7953;54.302;10.128;2023-09-19T15:02:23;18.00;99.90
15707;DHT22;7953;54.302;10.128;2023-09-19T15:04:51;18.00;99.90
15707;DHT22;7953;54.302;10.128;2023-09-19T15:07:18;18.00;99.90
15707;DHT22;7953;54.302;10.128;2023-09-19T15:09:45;17.90;99.90
15707;DHT22;7953;54.302;10.128;2023-09-19T15:12:12;18.00;99.90
15707;DHT22;7953;54.302;10.128;2023-09-19T15:14:40;18.00;99.90
15707;DHT22;7953;54.302;10.128;2023-09-19T15:17:08;18.00;99.90
15707;DHT22;7953;54.302;10.128;2023-09-19T15:19:36;18.00;99.90
15707;DHT22;7953;54.302;10.128;2023-09-19T15:22:04;18.00;99.90
15707;DHT22;7953;54.302;10.128;2023-09-19T15:24:31;18.10;99.90
15707;DHT22;7953;54.302;10.128;2023-09-19T15:26:58;18.20;99.90
15707;DHT22;7953;54.302;10.128;2023-09-19T15:29:25;18.10;99.90
15707;DHT22;7953;54.302;10.128;2023-09-19T15:31:54;18.00;99.90
15707;DHT22;7953;54.302;10.128;2023-09-19T15:34:22;18.00;99.90
15707;DHT22;7953;54.302;10.128;2023-09-19T15:36:51;17.90;99.90
15707;DHT22;7953;54.302;10.128;2023-09-19T15:39:18;17.90;99.90
15707;DHT22;7953;54.302;10.128;2023-09-19T15:41:48;17.90;99.90
15707;DHT22;7953;54.302;10.128;2023-09-19T15:44:18;17.90;99.90
15707;DHT22;7953;54.302;10.128;2023-09-19T15:46:45;17.90;99.90
15707;DHT22;7953;54.302;10.128;2023-09-19T15:49:12;17.80;99.90
15707;DHT22;7953;54.302;10.128;2023-09-19T15:51:40;17.80;99.90
15707;DHT22;7953;54.302;10.128;2023-09-19T15:54:11;17.70;99.90
15707;DHT22;7953;54.302;10.128;2023-09-19T15:56:39;17.70;99.90